Time;durP1;ratioP1;P1;durP2;ratioP2;P2;SDS_P1;SDS_P2;PMS_P1;PMS_P2;Temp;Humidity;BMP_temperature;BMP_pressure;BME280_temperature;BME280_humidity;BME280_pressure;Samples;Min_cycle;Max_cycle;Signal;HPM_P1;HPM_P2
2022/12/01 00:01:19;;;;;;;67.80;35.60;;;;;;;;;;5008620;28;98254;-74
2022/12/01 00:03:46;;;;;;;66.03;34.17;;;;;;;;;;5008389;28;99522;-74
2022/12/01 00:06:14;;;;;;;65.63;36.83;;;;;;;;;;5006601;28;100001;-74
2022/12/01 00:10:24;;;;;;;61.47;33.85;;;;;;;;;;4989954;28;98367;-74
2022/12/01 00:11:31;;;;;;;63.60;32.15;;;;;;;;;;4988984;28;98589;-74
2022/12/01 00:13:59;;;;;;;47.75;25.10;;;;;;;;;;5007241;28;100164;-73
2022/12/01 00:16:25;;;;;;;61.17;32.40;;;;;;;;;;5008678;28;98336;-74
2022/12/01 00:18:52;;;;;;;62.22;34.63;;;;;;;;;;5012104;28;99468;-74
2022/12/01 00:21:22;;;;;;;54.50;28.00;;;;;;;;;;5008003;28;98601;-74
2022/12/01 00:23:50;;;;;;;58.88;32.03;;;;;;;;;;5006795;28;98641;-74
2022/12/01 00:26:17;;;;;;;54.08;29.58;;;;;;;;;;4988883;28;99980;-74
2022/12/01 00:28:46;;;;;;;67.10;33.47;;;;;;;;;;4989743;28;98305;-74
2022/12/01 00:31:13;;;;;;;57.50;32.17;;;;;;;;;;5008439;28;98781;-74
2022/12/01 00:33:39;;;;;;;56.97;31.98;;;;;;;;;;5008472;28;100345;-74
2022/12/01 00:36:07;;;;;;;65.63;34.15;;;;;;;;;;5008109;28;98953;-74
2022/12/01 00:38:34;;;;;;;47.33;27.15;;;;;;;;;;5007473;28;99833;-74
2022/12/01 00:41:00;;;;;;;68.95;33.28;;;;;;;;;;5009839;28;99042;-73
2022/12/01 00:43:27;;;;;;;57.05;30.75;;;;;;;;;;5008524;28;99642;-73
2022/12/01 00:45:55;;;;;;;61.53;33.45;;;;;;;;;;5008075;28;99523;-73
2022/12/01 00:48:21;;;;;;;54.70;31.95;;;;;;;;;;5007091;28;98289;-73
2022/12/01 00:50:49;;;;;;;61.20;31.38;;;;;;;;;;5006811;28;99034;-73
2022/12/01 00:53:16;;;;;;;54.75;30.33;;;;;;;;;;5007252;28;99439;-73
2022/12/01 00:55:42;;;;;;;66.05;32.70;;;;;;;;;;5006702;28;98314;-72
2022/12/01 00:58:08;;;;;;;58.28;33.03;;;;;;;;;;5003266;28;99432;-73
2022/12/01 01:00:37;;;;;;;62.78;34.50;;;;;;;;;;4986616;28;99497;-73
2022/12/01 01:03:07;;;;;;;63.67;33.72;;;;;;;;;;4993644;28;98177;-73
2022/12/01 01:05:36;;;;;;;66.57;33.28;;;;;;;;;;5006812;28;100008;-73
2022/12/01 01:08:06;;;;;;;64.55;30.95;;;;;;;;;;5007236;28;98331;-73
2022/12/01 01:10:36;;;;;;;55.10;29.05;;;;;;;;;;5006527;28;99395;-73
2022/12/01 01:13:03;;;;;;;56.83;32.03;;;;;;;;;;5006129;28;99199;-73
2022/12/01 01:15:29;;;;;;;56.35;29.08;;;;;;;;;;4999578;28;98255;-73
2022/12/01 01:17:55;;;;;;;59.92;31.15;;;;;;;;;;4986199;28;99616;-73
2022/12/01 01:20:22;;;;;;;62.70;30.98;;;;;;;;;;4993732;28;99909;-73
2022/12/01 01:22:48;;;;;;;56.10;31.05;;;;;;;;;;5010207;28;98417;-73
2022/12/01 01:25:14;;;;;;;54.75;30.42;;;;;;;;;;5005792;28;99500;-72
2022/12/01 01:27:41;;;;;;;61.75;32.75;;;;;;;;;;5004947;28;99257;-73
2022/12/01 01:30:07;;;;;;;57.45;32.25;;;;;;;;;;5006041;28;99492;-73
2022/12/01 01:32:34;;;;;;;60.88;31.30;;;;;;;;;;4998309;28;100003;-73
2022/12/01 01:35:00;;;;;;;55.50;30.38;;;;;;;;;;4986046;28;98281;-73
2022/12/01 01:37:26;;;;;;;54.63;27.10;;;;;;;;;;4992793;28;98990;-73
2022/12/01 01:39:53;;;;;;;59.67;30.77;;;;;;;;;;5005588;28;99156;-73
2022/12/01 01:42:19;;;;;;;60.83;32.13;;;;;;;;;;5006484;28;98438;-73
2022/12/01 01:44:46;;;;;;;63.67;31.33;;;;;;;;;;5008541;28;99795;-73
2022/12/01 01:47:13;;;;;;;58.85;31.63;;;;;;;;;;5006151;28;98433;-73
2022/12/01 01:49:40;;;;;;;60.53;31.52;;;;;;;;;;4957530;28;1138279;-73
2022/12/01 01:52:06;;;;;;;69.18;33.30;;;;;;;;;;4985822;28;99180;-73
2022/12/01 01:54:45;;;;;;;65.53;31.40;;;;;;;;;;4995935;28;98296;-74
2022/12/01 01:57:13;;;;;;;49.67;26.45;;;;;;;;;;5007749;28;99731;-73
2022/12/01 01:59:44;;;;;;;58.60;31.95;;;;;;;;;;5005521;28;99054;-73
2022/12/01 02:02:11;;;;;;;67.15;33.45;;;;;;;;;;5006722;28;98339;-73
2022/12/01 02:04:44;;;;;;;68.45;34.05;;;;;;;;;;5006638;28;98458;-73
2022/12/01 02:07:11;;;;;;;60.13;30.60;;;;;;;;;;5006353;28;100102;-73
2022/12/01 02:09:38;;;;;;;68.25;32.55;;;;;;;;;;4987635;28;99505;-73
2022/12/01 02:12:22;;;;;;;65.25;30.10;;;;;;;;;;5000192;28;100247;-73
2022/12/01 02:15:07;;;;;;;69.50;35.05;;;;;;;;;;5006902;28;98286;-73
2022/12/01 02:17:52;;;;;;;63.40;33.88;;;;;;;;;;5006097;28;99560;-73
2022/12/01 02:20:25;;;;;;;61.10;30.17;;;;;;;;;;5006185;28;100292;-73
2022/12/01 02:23:09;;;;;;;72.15;33.72;;;;;;;;;;5005227;28;98871;-73
2022/12/01 02:25:55;;;;;;;64.68;30.45;;;;;;;;;;4986924;28;99207;-73
2022/12/01 02:28:40;;;;;;;67.30;32.10;;;;;;;;;;4993373;28;100253;-73
2022/12/01 02:31:23;;;;;;;74.03;34.53;;;;;;;;;;5009522;28;98311;-73
2022/12/01 02:34:04;;;;;;;57.58;29.75;;;;;;;;;;5006258;28;99929;-73
2022/12/01 02:36:33;;;;;;;69.47;33.83;;;;;;;;;;5006897;28;98489;-74
2022/12/01 02:39:13;;;;;;;82.07;35.28;;;;;;;;;;5005811;28;98954;-73
2022/12/01 02:41:47;;;;;;;76.15;36.30;;;;;;;;;;4989304;28;100259;-73
2022/12/01 02:44:16;;;;;;;67.78;33.85;;;;;;;;;;4985969;28;98355;-73
2022/12/01 02:46:55;;;;;;;71.10;34.40;;;;;;;;;;5004791;28;99532;-73
2022/12/01 02:49:24;;;;;;;60.20;31.42;;;;;;;;;;5005882;28;100793;-73
2022/12/01 02:51:52;;;;;;;72.82;34.55;;;;;;;;;;5006885;28;98615;-73
2022/12/01 02:54:19;;;;;;;63.95;31.23;;;;;;;;;;5009967;28;99884;-73
2022/12/01 02:56:50;;;;;;;73.43;36.60;;;;;;;;;;5005020;28;98267;-72
2022/12/01 02:59:16;;;;;;;68.10;33.78;;;;;;;;;;5006950;28;100539;-73
2022/12/01 03:01:52;;;;;;;70.03;34.45;;;;;;;;;;5005026;28;99163;-73
2022/12/01 03:04:36;;;;;;;70.97;34.38;;;;;;;;;;5005966;28;99272;-74
2022/12/01 03:07:25;;;;;;;71.63;34.80;;;;;;;;;;5006617;28;99547;-73
2022/12/01 03:09:52;;;;;;;74.35;35.22;;;;;;;;;;5005064;28;100283;-73
2022/12/01 03:12:28;;;;;;;68.75;33.78;;;;;;;;;;5006247;28;98526;-73
2022/12/01 03:15:29;;;;;;;62.15;27.85;;;;;;;;;;4986407;28;98270;-73
2022/12/01 03:18:00;;;;;;;59.20;31.05;;;;;;;;;;4927022;28;99067;-73
2022/12/01 03:20:46;;;;;;;65.72;31.70;;;;;;;;;;4990722;28;99720;-73
2022/12/01 03:23:19;;;;;;;69.53;33.28;;;;;;;;;;5005121;28;100006;-73
2022/12/01 03:25:47;;;;;;;68.90;33.40;;;;;;;;;;5006115;28;98594;-73
2022/12/01 03:28:15;;;;;;;67.53;33.40;;;;;;;;;;5004003;28;99751;-73
2022/12/01 03:30:54;;;;;;;69.60;33.97;;;;;;;;;;4997081;28;100150;-73
2022/12/01 03:33:26;;;;;;;65.82;30.63;;;;;;;;;;4987152;28;98352;-73
2022/12/01 03:35:54;;;;;;;71.57;32.10;;;;;;;;;;5005279;28;99452;-73
2022/12/01 03:38:23;;;;;;;65.10;27.95;;;;;;;;;;5009049;28;99973;-73
2022/12/01 03:40:52;;;;;;;56.92;30.88;;;;;;;;;;5006254;28;99151;-74
2022/12/01 03:43:21;;;;;;;71.25;34.92;;;;;;;;;;5006057;28;100007;-74
2022/12/01 03:46:13;;;;;;;72.75;34.60;;;;;;;;;;5005154;28;98501;-74
2022/12/01 03:48:40;;;;;;;73.77;34.63;;;;;;;;;;4982968;28;99260;-73
2022/12/01 03:51:13;;;;;;;75.00;36.08;;;;;;;;;;4984639;28;99194;-74
2022/12/01 03:54:04;;;;;;;67.45;33.55;;;;;;;;;;4995625;28;98343;-73
2022/12/01 03:56:35;;;;;;;72.30;35.65;;;;;;;;;;5005938;28;98762;-74
2022/12/01 03:59:03;;;;;;;69.85;33.05;;;;;;;;;;5008672;28;99992;-74
2022/12/01 04:01:31;;;;;;;65.35;33.05;;;;;;;;;;5011494;28;98362;-74
2022/12/01 04:04:10;;;;;;;66.60;31.70;;;;;;;;;;5009220;28;100065;-74
2022/12/01 04:06:37;;;;;;;77.22;34.17;;;;;;;;;;4992428;28;98552;-74
2022/12/01 04:09:04;;;;;;;76.13;34.45;;;;;;;;;;4991972;28;98738;-74
2022/12/01 04:14:29;;;;;;;74.82;33.53;;;;;;;;;;4975122;28;98402;-73
2022/12/01 04:16:55;;;;;;;81.22;35.80;;;;;;;;;;5009033;28;99516;-73
2022/12/01 04:19:22;;;;;;;78.88;34.17;;;;;;;;;;5007597;28;99186;-73
2022/12/01 04:21:48;;;;;;;73.78;33.95;;;;;;;;;;5008011;28;98168;-73
2022/12/01 04:24:15;;;;;;;79.90;35.47;;;;;;;;;;5006235;28;99872;-73
2022/12/01 04:26:42;;;;;;;76.38;35.88;;;;;;;;;;5006879;28;98326;-74
2022/12/01 04:29:09;;;;;;;76.45;35.88;;;;;;;;;;5009012;28;99515;-73
2022/12/01 04:31:36;;;;;;;80.68;36.60;;;;;;;;;;5008027;28;99417;-73
2022/12/01 04:34:02;;;;;;;82.03;34.20;;;;;;;;;;5008184;28;98468;-73
2022/12/01 04:36:30;;;;;;;81.00;35.83;;;;;;;;;;5007883;28;98169;-73
2022/12/01 04:38:57;;;;;;;66.05;30.77;;;;;;;;;;5006368;28;100023;-73
2022/12/01 04:41:23;;;;;;;78.63;35.95;;;;;;;;;;4988349;28;99203;-73
2022/12/01 04:43:51;;;;;;;84.30;35.97;;;;;;;;;;4991944;28;99638;-73
2022/12/01 04:46:17;;;;;;;83.20;35.20;;;;;;;;;;5011658;28;100239;-73
2022/12/01 04:48:44;;;;;;;84.55;36.13;;;;;;;;;;5006651;28;98703;-73
2022/12/01 04:51:10;;;;;;;86.20;37.20;;;;;;;;;;5007745;28;99990;-73
2022/12/01 04:53:37;;;;;;;81.72;35.53;;;;;;;;;;5007582;28;98286;-73
2022/12/01 04:56:04;;;;;;;86.95;38.35;;;;;;;;;;5004491;28;99684;-73
2022/12/01 04:58:31;;;;;;;75.63;34.45;;;;;;;;;;4987940;28;100144;-73
2022/12/01 05:01:04;;;;;;;85.00;37.97;;;;;;;;;;4991021;28;98294;-73
2022/12/01 05:03:31;;;;;;;74.80;34.45;;;;;;;;;;5007384;28;99133;-73
2022/12/01 05:06:01;;;;;;;72.30;37.28;;;;;;;;;;5007522;28;98978;-73
2022/12/01 05:08:27;;;;;;;80.60;36.58;;;;;;;;;;5009246;28;98268;-73
2022/12/01 05:10:54;;;;;;;84.70;37.00;;;;;;;;;;5007609;28;99648;-73
2022/12/01 05:13:21;;;;;;;81.65;36.95;;;;;;;;;;5007360;28;98429;-73
2022/12/01 05:15:47;;;;;;;87.28;36.92;;;;;;;;;;5006505;28;99537;-73
2022/12/01 05:18:14;;;;;;;87.38;37.33;;;;;;;;;;5008096;28;100007;-73
2022/12/01 05:20:58;;;;;;;88.53;35.38;;;;;;;;;;5007867;28;98268;-74
2022/12/01 05:23:25;;;;;;;82.78;37.17;;;;;;;;;;5007077;28;99994;-73
2022/12/01 05:25:52;;;;;;;92.90;37.50;;;;;;;;;;5007895;28;100341;-73
2022/12/01 05:28:18;;;;;;;85.32;36.85;;;;;;;;;;5010778;28;98354;-73
2022/12/01 05:30:45;;;;;;;86.03;37.38;;;;;;;;;;4997984;28;99994;-73
2022/12/01 05:33:11;;;;;;;82.65;36.45;;;;;;;;;;4988116;28;98365;-73
2022/12/01 05:35:38;;;;;;;83.20;36.58;;;;;;;;;;4997125;28;99426;-73
2022/12/01 05:38:04;;;;;;;100.57;38.47;;;;;;;;;;5006922;28;100130;-73
2022/12/01 05:40:33;;;;;;;81.38;35.42;;;;;;;;;;5006732;28;98364;-73
2022/12/01 05:43:00;;;;;;;89.75;38.97;;;;;;;;;;5007625;28;99624;-73
2022/12/01 05:45:26;;;;;;;97.10;38.28;;;;;;;;;;5006629;28;100023;-73
2022/12/01 05:47:53;;;;;;;95.82;39.60;;;;;;;;;;4996818;28;98339;-73
2022/12/01 05:50:20;;;;;;;84.85;35.63;;;;;;;;;;4989951;28;99041;-73
2022/12/01 05:52:46;;;;;;;92.88;39.83;;;;;;;;;;4997300;28;99111;-72
2022/12/01 05:55:13;;;;;;;96.03;37.80;;;;;;;;;;5007730;28;99546;-73
2022/12/01 05:57:39;;;;;;;105.22;40.03;;;;;;;;;;5006231;28;99175;-73
2022/12/01 06:00:06;;;;;;;93.85;38.88;;;;;;;;;;5007510;28;98243;-73
2022/12/01 06:02:39;;;;;;;87.85;35.05;;;;;;;;;;5007176;28;99474;-74
2022/12/01 06:05:05;;;;;;;87.00;36.45;;;;;;;;;;4994133;28;99910;-73
2022/12/01 06:07:33;;;;;;;96.30;38.53;;;;;;;;;;4987212;28;98373;-73
2022/12/01 06:10:00;;;;;;;106.88;40.92;;;;;;;;;;4990436;28;99522;-73
2022/12/01 06:12:26;;;;;;;101.18;41.05;;;;;;;;;;4989658;28;100238;-72
2022/12/01 06:14:53;;;;;;;87.85;36.15;;;;;;;;;;4987653;28;99375;-73
2022/12/01 06:17:19;;;;;;;113.00;40.72;;;;;;;;;;4987247;28;100034;-73
2022/12/01 06:19:46;;;;;;;91.57;39.42;;;;;;;;;;4985995;28;98253;-73
2022/12/01 06:22:13;;;;;;;104.78;41.13;;;;;;;;;;4987025;28;98970;-73
2022/12/01 06:24:40;;;;;;;105.20;38.42;;;;;;;;;;5004522;28;99936;-73
2022/12/01 06:27:06;;;;;;;106.25;39.75;;;;;;;;;;5006487;28;98822;-73
2022/12/01 06:29:32;;;;;;;113.45;41.88;;;;;;;;;;5006008;28;99435;-73
2022/12/01 06:32:05;;;;;;;119.25;42.63;;;;;;;;;;5006969;28;100692;-73
2022/12/01 06:34:32;;;;;;;111.15;40.22;;;;;;;;;;5009462;28;98584;-73
2022/12/01 06:36:58;;;;;;;103.88;41.00;;;;;;;;;;5006109;28;99050;-73
2022/12/01 06:39:24;;;;;;;117.22;41.45;;;;;;;;;;4992287;28;98323;-73
2022/12/01 06:41:51;;;;;;;114.10;40.72;;;;;;;;;;4986285;28;99588;-73
2022/12/01 06:44:17;;;;;;;111.15;40.58;;;;;;;;;;5001306;28;99966;-73
2022/12/01 06:46:44;;;;;;;114.18;41.33;;;;;;;;;;5006183;28;98314;-73
2022/12/01 06:49:11;;;;;;;121.25;41.45;;;;;;;;;;5006036;28;99665;-73
2022/12/01 06:51:38;;;;;;;114.53;42.03;;;;;;;;;;5006160;28;100094;-73
2022/12/01 06:54:04;;;;;;;126.40;41.92;;;;;;;;;;5005397;28;98359;-72
2022/12/01 06:56:31;;;;;;;133.77;42.70;;;;;;;;;;4994376;28;99957;-73
2022/12/01 06:58:57;;;;;;;116.47;42.20;;;;;;;;;;4991677;28;98312;-73
2022/12/01 07:01:24;;;;;;;131.50;43.13;;;;;;;;;;5005904;28;99400;-73
2022/12/01 07:03:51;;;;;;;119.82;42.53;;;;;;;;;;5005375;28;99005;-72
2022/12/01 07:06:17;;;;;;;135.90;42.03;;;;;;;;;;5005676;28;98290;-73
2022/12/01 07:08:43;;;;;;;145.68;45.67;;;;;;;;;;5004850;28;98631;-73
2022/12/01 07:11:11;;;;;;;155.60;46.20;;;;;;;;;;5006304;28;99256;-73
2022/12/01 07:13:38;;;;;;;152.23;44.63;;;;;;;;;;5002741;28;98299;-73
2022/12/01 07:16:05;;;;;;;137.05;45.28;;;;;;;;;;5001263;28;99448;-73
2022/12/01 07:18:31;;;;;;;147.50;44.90;;;;;;;;;;5005146;28;99794;-73
2022/12/01 07:20:59;;;;;;;159.82;47.17;;;;;;;;;;5003931;28;101765;-73
2022/12/01 07:23:25;;;;;;;147.07;45.40;;;;;;;;;;5001484;28;99106;-72
2022/12/01 07:25:59;;;;;;;147.57;47.08;;;;;;;;;;5003870;28;98270;-72
2022/12/01 07:28:25;;;;;;;139.35;43.17;;;;;;;;;;4992866;28;99999;-73
2022/12/01 07:30:52;;;;;;;141.95;44.55;;;;;;;;;;4999544;28;99190;-72
2022/12/01 07:33:18;;;;;;;155.45;46.83;;;;;;;;;;5007051;28;98509;-73
2022/12/01 07:35:44;;;;;;;159.00;48.97;;;;;;;;;;5007804;28;101066;-71
2022/12/01 07:38:11;;;;;;;159.10;45.83;;;;;;;;;;5012298;28;100225;-73
2022/12/01 07:40:37;;;;;;;143.32;49.15;;;;;;;;;;5007613;28;99088;-73
2022/12/01 07:43:03;;;;;;;148.07;46.13;;;;;;;;;;5006903;28;100082;-73
2022/12/01 07:45:30;;;;;;;143.93;47.13;;;;;;;;;;5008195;28;98546;-73
2022/12/01 07:47:56;;;;;;;135.23;47.38;;;;;;;;;;5006127;28;98934;-73
2022/12/01 07:50:22;;;;;;;141.20;46.03;;;;;;;;;;5006758;28;100380;-73
2022/12/01 07:52:49;;;;;;;92.57;31.35;;;;;;;;;;5003056;28;98724;-74
2022/12/01 07:55:16;;;;;;;132.30;47.15;;;;;;;;;;5008823;28;98627;-73
2022/12/01 07:57:42;;;;;;;137.82;48.08;;;;;;;;;;4994117;28;99248;-73
2022/12/01 08:00:08;;;;;;;137.38;46.22;;;;;;;;;;4995331;28;98265;-74
2022/12/01 08:02:37;;;;;;;117.40;45.33;;;;;;;;;;5008904;28;98624;-73
2022/12/01 08:05:03;;;;;;;119.10;43.38;;;;;;;;;;5008590;28;98290;-74
2022/12/01 08:07:30;;;;;;;118.10;44.97;;;;;;;;;;5008251;28;99640;-73
2022/12/01 08:09:56;;;;;;;128.57;45.60;;;;;;;;;;5009582;28;100370;-74
2022/12/01 08:12:22;;;;;;;111.10;42.50;;;;;;;;;;5008340;28;98273;-73
2022/12/01 08:14:49;;;;;;;119.70;45.95;;;;;;;;;;5006781;28;99703;-74
2022/12/01 08:17:15;;;;;;;100.72;40.90;;;;;;;;;;5002415;28;100508;-73
2022/12/01 08:19:41;;;;;;;118.70;45.13;;;;;;;;;;5004185;28;100193;-74
2022/12/01 08:22:08;;;;;;;115.55;44.30;;;;;;;;;;5012375;28;99442;-74
2022/12/01 08:24:34;;;;;;;118.82;46.47;;;;;;;;;;5008942;28;98388;-74
2022/12/01 08:27:00;;;;;;;112.90;43.42;;;;;;;;;;5004453;28;99212;-74
2022/12/01 08:29:27;;;;;;;110.90;44.38;;;;;;;;;;5007151;28;99872;-73
2022/12/01 08:31:55;;;;;;;120.45;42.92;;;;;;;;;;4999645;28;99346;-73
2022/12/01 08:34:22;;;;;;;112.65;45.00;;;;;;;;;;5001977;28;99467;-74
2022/12/01 08:36:48;;;;;;;106.97;43.35;;;;;;;;;;4990837;28;100197;-73
2022/12/01 08:39:14;;;;;;;102.78;41.92;;;;;;;;;;4999384;28;98397;-73
2022/12/01 08:41:41;;;;;;;97.65;37.67;;;;;;;;;;4987767;28;99334;-73
2022/12/01 08:44:08;;;;;;;98.40;42.40;;;;;;;;;;4998808;28;100095;-72
2022/12/01 08:46:35;;;;;;;104.72;45.80;;;;;;;;;;4988016;28;99252;-73
2022/12/01 08:49:03;;;;;;;102.32;39.88;;;;;;;;;;4987405;28;99164;-73
2022/12/01 08:51:29;;;;;;;110.05;44.50;;;;;;;;;;4987582;28;98297;-74
2022/12/01 08:53:57;;;;;;;103.97;43.15;;;;;;;;;;4987921;28;99471;-73
2022/12/01 08:56:26;;;;;;;107.60;43.35;;;;;;;;;;4996341;28;99992;-73
2022/12/01 08:58:52;;;;;;;103.05;44.88;;;;;;;;;;5008358;28;98339;-74
2022/12/01 09:01:19;;;;;;;102.18;40.78;;;;;;;;;;5007665;28;99656;-73
2022/12/01 09:03:46;;;;;;;98.88;40.22;;;;;;;;;;5000438;28;100311;-73
2022/12/01 09:06:14;;;;;;;104.80;41.88;;;;;;;;;;5000971;28;98260;-73
2022/12/01 09:08:40;;;;;;;97.07;42.03;;;;;;;;;;4987724;28;100006;-72
2022/12/01 09:11:09;;;;;;;98.78;42.75;;;;;;;;;;5006825;28;98323;-72
2022/12/01 09:13:36;;;;;;;87.40;39.80;;;;;;;;;;5008099;28;99391;-72
2022/12/01 09:16:04;;;;;;;102.10;44.08;;;;;;;;;;5007379;28;100102;-73
2022/12/01 09:18:31;;;;;;;94.57;40.08;;;;;;;;;;5008036;28;98457;-73
2022/12/01 09:20:57;;;;;;;96.20;41.75;;;;;;;;;;5006589;28;98721;-73
2022/12/01 09:23:24;;;;;;;100.45;43.53;;;;;;;;;;5006815;28;100331;-74
2022/12/01 09:25:51;;;;;;;103.32;45.70;;;;;;;;;;5008112;28;98213;-73
2022/12/01 09:28:18;;;;;;;85.55;39.85;;;;;;;;;;5001279;28;100206;-72
2022/12/01 09:30:45;;;;;;;93.60;43.78;;;;;;;;;;4991115;28;98562;-73
2022/12/01 09:33:12;;;;;;;98.07;44.85;;;;;;;;;;5003589;28;99514;-73
2022/12/01 09:35:38;;;;;;;103.10;43.22;;;;;;;;;;5004156;28;100023;-73
2022/12/01 09:38:04;;;;;;;104.13;43.85;;;;;;;;;;5003513;28;98437;-74
2022/12/01 09:40:33;;;;;;;87.75;43.20;;;;;;;;;;5008024;28;99487;-73
2022/12/01 09:43:02;;;;;;;102.50;45.53;;;;;;;;;;5004711;28;99989;-73
2022/12/01 09:45:30;;;;;;;100.88;45.95;;;;;;;;;;4997982;28;99083;-73
2022/12/01 09:47:58;;;;;;;85.60;38.72;;;;;;;;;;5009203;28;98801;-73
2022/12/01 09:50:26;;;;;;;95.97;44.97;;;;;;;;;;4995788;28;101351;-72
2022/12/01 09:52:56;;;;;;;99.45;44.55;;;;;;;;;;5007821;28;99584;-73
2022/12/01 09:55:23;;;;;;;91.72;44.08;;;;;;;;;;5006609;28;101734;-73
2022/12/01 09:57:54;;;;;;;106.38;47.97;;;;;;;;;;5006272;28;98492;-73
2022/12/01 10:00:22;;;;;;;84.90;44.08;;;;;;;;;;5007445;28;99596;-73
2022/12/01 10:02:51;;;;;;;95.43;43.75;;;;;;;;;;4999840;28;99902;-72
2022/12/01 10:05:18;;;;;;;93.85;44.70;;;;;;;;;;5003721;28;98100;-73
2022/12/01 10:07:47;;;;;;;90.38;42.75;;;;;;;;;;5006205;28;99616;-72
2022/12/01 10:10:16;;;;;;;85.00;42.42;;;;;;;;;;5008456;28;100009;-73
2022/12/01 10:12:45;;;;;;;81.95;39.28;;;;;;;;;;5006150;28;99558;-73
2022/12/01 10:15:11;;;;;;;85.90;40.55;;;;;;;;;;5007257;28;100122;-73
2022/12/01 10:17:56;;;;;;;82.40;39.22;;;;;;;;;;5004020;28;98809;-73
2022/12/01 10:20:29;;;;;;;85.32;42.58;;;;;;;;;;4993216;28;99868;-74
2022/12/01 10:23:07;;;;;;;81.55;40.70;;;;;;;;;;4993375;28;100440;-72
2022/12/01 10:25:45;;;;;;;85.22;41.30;;;;;;;;;;5004676;28;98210;-74
2022/12/01 10:28:30;;;;;;;81.32;41.55;;;;;;;;;;5004309;28;99459;-73
2022/12/01 10:31:01;;;;;;;92.40;43.42;;;;;;;;;;4998028;28;100725;-73
2022/12/01 10:33:51;;;;;;;75.88;36.72;;;;;;;;;;5008982;28;98512;-73
2022/12/01 10:36:17;;;;;;;81.45;38.00;;;;;;;;;;4991197;28;100623;-73
2022/12/01 10:38:44;;;;;;;89.88;43.05;;;;;;;;;;4991809;28;98643;-73
2022/12/01 10:41:13;;;;;;;87.25;44.55;;;;;;;;;;5004207;28;101823;-73
2022/12/01 10:43:43;;;;;;;84.25;44.05;;;;;;;;;;5004986;28;99158;-73
2022/12/01 10:46:26;;;;;;;95.10;43.35;;;;;;;;;;5004327;28;98232;-74
2022/12/01 10:48:57;;;;;;;82.72;44.17;;;;;;;;;;4986857;28;99607;-74
2022/12/01 10:51:24;;;;;;;76.90;40.63;;;;;;;;;;4992030;28;100619;-74
2022/12/01 10:53:56;;;;;;;77.47;41.15;;;;;;;;;;5001643;28;98653;-74
2022/12/01 10:56:23;;;;;;;72.85;39.22;;;;;;;;;;4990798;28;100251;-73
2022/12/01 10:58:54;;;;;;;67.68;36.40;;;;;;;;;;4986202;28;98429;-74
2022/12/01 11:01:20;;;;;;;76.53;38.70;;;;;;;;;;5001689;28;101218;-72
2022/12/01 11:04:00;;;;;;;74.40;40.05;;;;;;;;;;5004968;28;100219;-74
2022/12/01 11:06:27;;;;;;;71.13;38.85;;;;;;;;;;5009152;28;98196;-73
2022/12/01 11:08:56;;;;;;;74.22;37.28;;;;;;;;;;5008420;28;100210;-72
2022/12/01 11:11:25;;;;;;;63.80;35.83;;;;;;;;;;5010095;28;100291;-73
2022/12/01 11:13:52;;;;;;;80.45;39.97;;;;;;;;;;5008356;28;99293;-74
2022/12/01 11:16:37;;;;;;;73.78;38.08;;;;;;;;;;5006800;28;99702;-73
2022/12/01 11:19:08;;;;;;;71.32;36.00;;;;;;;;;;5011319;28;100335;-73
2022/12/01 11:21:43;;;;;;;68.18;35.13;;;;;;;;;;5008930;28;99364;-74
2022/12/01 11:24:23;;;;;;;66.45;36.72;;;;;;;;;;5002443;28;99675;-74
2022/12/01 11:26:50;;;;;;;71.05;37.65;;;;;;;;;;4999692;28;99247;-73
2022/12/01 11:29:34;;;;;;;68.57;37.90;;;;;;;;;;5006383;28;98742;-73
2022/12/01 11:32:10;;;;;;;67.65;36.95;;;;;;;;;;5003467;28;99843;-73
2022/12/01 11:34:37;;;;;;;71.72;39.88;;;;;;;;;;5000002;28;100601;-73
2022/12/01 11:37:08;;;;;;;68.55;39.45;;;;;;;;;;5003873;28;99515;-73
2022/12/01 11:39:38;;;;;;;70.65;40.70;;;;;;;;;;4999228;28;100033;-73
2022/12/01 11:42:05;;;;;;;65.72;33.92;;;;;;;;;;5009105;28;99838;-73
2022/12/01 11:44:33;;;;;;;69.30;37.50;;;;;;;;;;5007257;28;98983;-73
2022/12/01 11:47:20;;;;;;;63.47;34.55;;;;;;;;;;5008347;28;98268;-72
2022/12/01 11:49:55;;;;;;;62.65;34.83;;;;;;;;;;5005138;28;99617;-73
2022/12/01 11:52:29;;;;;;;55.13;29.63;;;;;;;;;;5006579;28;99955;-73
2022/12/01 11:55:00;;;;;;;66.57;35.35;;;;;;;;;;4996539;28;99312;-73
2022/12/01 11:57:35;;;;;;;61.35;34.97;;;;;;;;;;5001109;28;99326;-72
2022/12/01 12:00:11;;;;;;;62.53;35.25;;;;;;;;;;5004549;28;100300;-72
2022/12/01 12:02:42;;;;;;;53.88;31.98;;;;;;;;;;5004933;28;98636;-73
2022/12/01 12:05:12;;;;;;;56.93;33.83;;;;;;;;;;5003008;28;99889;-72
2022/12/01 12:07:38;;;;;;;51.17;31.63;;;;;;;;;;5001583;28;99737;-72
2022/12/01 12:10:13;;;;;;;62.53;35.00;;;;;;;;;;4989089;28;98488;-72
2022/12/01 12:12:58;;;;;;;57.80;34.30;;;;;;;;;;4987825;28;99071;-72
2022/12/01 12:15:43;;;;;;;56.85;32.95;;;;;;;;;;4999584;28;98319;-72
2022/12/01 12:18:20;;;;;;;59.25;35.42;;;;;;;;;;5007167;28;98805;-72
2022/12/01 12:20:47;;;;;;;46.25;28.15;;;;;;;;;;5008391;28;99134;-73
2022/12/01 12:23:23;;;;;;;51.90;31.45;;;;;;;;;;5008761;28;98279;-72
2022/12/01 12:26:25;;;;;;;58.47;33.67;;;;;;;;;;5011703;28;99371;-72
2022/12/01 12:28:55;;;;;;;52.55;30.60;;;;;;;;;;4906695;28;99618;-72
2022/12/01 12:31:42;;;;;;;48.75;28.00;;;;;;;;;;4990195;28;98847;-72
2022/12/01 12:34:18;;;;;;;45.92;29.15;;;;;;;;;;5007907;28;99150;-72
2022/12/01 12:36:59;;;;;;;55.00;31.40;;;;;;;;;;5008830;28;98218;-72
2022/12/01 12:39:25;;;;;;;47.55;30.55;;;;;;;;;;5004827;28;99639;-74
2022/12/01 12:41:53;;;;;;;53.50;32.75;;;;;;;;;;5004090;28;100015;-72
2022/12/01 12:44:52;;;;;;;49.63;29.63;;;;;;;;;;4993328;28;98462;-72
2022/12/01 12:47:24;;;;;;;54.95;32.58;;;;;;;;;;4965942;28;99150;-72
2022/12/01 12:49:59;;;;;;;40.80;21.53;;;;;;;;;;5004138;28;100061;-72
2022/12/01 12:52:32;;;;;;;58.47;33.90;;;;;;;;;;5004593;28;99574;-72
2022/12/01 12:54:58;;;;;;;;;;;;;;;;;;4995419;28;99249;-72
2022/12/01 12:57:30;;;;;;;59.60;32.40;;;;;;;;;;4992973;28;124010;-72
2022/12/01 12:59:59;;;;;;;61.20;32.70;;;;;;;;;;4995057;28;100161;-72
2022/12/01 13:02:25;;;;;;;53.00;31.52;;;;;;;;;;4989383;28;100535;-72
2022/12/01 13:04:58;;;;;;;48.90;29.95;;;;;;;;;;4999750;28;100252;-73
2022/12/01 13:07:34;;;;;;;56.90;34.42;;;;;;;;;;5003839;28;99669;-72
2022/12/01 13:10:09;;;;;;;45.35;25.27;;;;;;;;;;5007334;28;100026;-72
2022/12/01 13:12:39;;;;;;;49.65;28.73;;;;;;;;;;5008762;28;100379;-72
2022/12/01 13:15:13;;;;;;;44.75;24.17;;;;;;;;;;4997176;28;99843;-72
2022/12/01 13:17:42;;;;;;;54.25;31.23;;;;;;;;;;4995594;28;99793;-72
2022/12/01 13:20:17;;;;;;;51.20;32.63;;;;;;;;;;5001482;28;99582;-72
2022/12/01 13:22:44;;;;;;;49.15;28.95;;;;;;;;;;5003412;28;99321;-73
2022/12/01 13:25:15;;;;;;;48.00;29.08;;;;;;;;;;5005166;28;98402;-72
2022/12/01 13:27:42;;;;;;;53.38;31.25;;;;;;;;;;5005108;28;99556;-73
2022/12/01 13:30:16;;;;;;;54.38;31.98;;;;;;;;;;4999873;28;100603;-72
2022/12/01 13:32:43;;;;;;;48.58;30.30;;;;;;;;;;4997786;28;99022;-73
2022/12/01 13:35:28;;;;;;;49.30;28.45;;;;;;;;;;5002751;28;99900;-72
2022/12/01 13:37:56;;;;;;;50.78;31.77;;;;;;;;;;5004789;28;98430;-73
2022/12/01 13:40:24;;;;;;;44.97;25.98;;;;;;;;;;5005269;28;99628;-73
2022/12/01 13:42:59;;;;;;;54.08;29.50;;;;;;;;;;4993820;28;100276;-72
2022/12/01 13:45:34;;;;;;;50.13;29.90;;;;;;;;;;4992121;28;98609;-72
2022/12/01 13:48:02;;;;;;;53.38;32.80;;;;;;;;;;4986507;28;99950;-72
2022/12/01 13:50:46;;;;;;;46.60;29.20;;;;;;;;;;4986249;28;99978;-72
2022/12/01 13:53:24;;;;;;;48.70;29.50;;;;;;;;;;4992026;28;98224;-72
2022/12/01 13:55:55;;;;;;;51.80;29.23;;;;;;;;;;4987322;28;99546;-72
2022/12/01 13:58:23;;;;;;;46.85;28.33;;;;;;;;;;4999797;28;99966;-73
2022/12/01 14:00:50;;;;;;;46.58;29.77;;;;;;;;;;5005287;28;98758;-73
2022/12/01 14:03:18;;;;;;;48.75;30.60;;;;;;;;;;5006690;28;99978;-72
2022/12/01 14:05:55;;;;;;;42.47;28.73;;;;;;;;;;5002186;28;98440;-73
2022/12/01 14:08:23;;;;;;;47.38;30.05;;;;;;;;;;5006465;28;98899;-73
2022/12/01 14:10:56;;;;;;;46.47;27.65;;;;;;;;;;5002340;28;100374;-73
2022/12/01 14:13:23;;;;;;;50.85;29.80;;;;;;;;;;4999031;28;98279;-72
2022/12/01 14:15:54;;;;;;;27.50;18.05;;;;;;;;;;5003862;28;100141;-72
2022/12/01 14:18:31;;;;;;;49.92;30.40;;;;;;;;;;5008571;28;99434;-73
2022/12/01 14:20:58;;;;;;;41.65;26.75;;;;;;;;;;5007044;28;99562;-72
2022/12/01 14:23:27;;;;;;;49.30;28.98;;;;;;;;;;5002373;28;100307;-74
2022/12/01 14:26:00;;;;;;;44.13;27.60;;;;;;;;;;5003842;28;98846;-73
2022/12/01 14:28:45;;;;;;;51.78;29.30;;;;;;;;;;4990600;28;99425;-73
2022/12/01 14:31:11;;;;;;;44.22;28.10;;;;;;;;;;4995457;28;100202;-73